createdAt,value
2019-04-30T00:02:15.885Z,95669.09
2019-04-30T00:04:47.748Z,95664.29
2019-04-30T00:07:19.083Z,95662.47
2019-04-30T00:09:49.231Z,95666.46
2019-04-30T00:12:19.041Z,95660.05
2019-04-30T00:14:48.200Z,95654.38
2019-04-30T00:17:19.671Z,95643.47
2019-04-30T00:19:50.471Z,95635.69
2019-04-30T00:22:30.979Z,95631.72
2019-04-30T00:24:50.220Z,95636.49
2019-04-30T00:27:21.044Z,95637.37
2019-04-30T00:29:50.372Z,95640.04
2019-04-30T00:32:19.488Z,95633.90
2019-04-30T00:34:48.639Z,95634.09
2019-04-30T00:37:18.820Z,95637.22
2019-04-30T00:39:50.848Z,95632.45
2019-04-30T00:42:24.256Z,95635.42
2019-04-30T00:44:49.968Z,95630.16
2019-04-30T00:47:19.129Z,95627.57
2019-04-30T00:49:52.047Z,95624.18
2019-04-30T00:52:19.231Z,95612.02
2019-04-30T00:54:48.345Z,95611.63
2019-04-30T00:57:17.530Z,95615.14
2019-04-30T00:59:48.046Z,95623.42
2019-04-30T01:02:32.245Z,95620.33
2019-04-30T01:05:05.244Z,95620.30
2019-04-30T01:07:32.870Z,95615.03
2019-04-30T01:10:02.080Z,95621.09
2019-04-30T01:12:36.362Z,95609.88
2019-04-30T01:15:06.552Z,95608.63
2019-04-30T01:17:33.588Z,95610.34
2019-04-30T01:20:03.051Z,95599.05
2019-04-30T01:22:32.850Z,95589.94
2019-04-30T01:25:11.715Z,95588.64
2019-04-30T01:27:33.279Z,95572.25
2019-04-30T01:30:04.075Z,95574.42
2019-04-30T01:32:33.352Z,95572.67
2019-04-30T01:35:02.505Z,95569.16
2019-04-30T01:37:32.893Z,95563.72
2019-04-30T01:40:03.035Z,95560.37
2019-04-30T01:42:33.384Z,95561.20
2019-04-30T01:45:02.553Z,95565.14
2019-04-30T01:47:31.712Z,95561.66
2019-04-30T01:50:04.719Z,95564.21
2019-04-30T01:53:04.832Z,95564.64
2019-04-30T01:55:56.122Z,95561.70
2019-04-30T01:58:33.588Z,95555.18
2019-04-30T02:01:06.635Z,95546.95
2019-04-30T02:03:35.814Z,95547.07
2019-04-30T02:06:04.951Z,95543.59
2019-04-30T02:08:34.254Z,95541.84
2019-04-30T02:11:03.427Z,95553.39
2019-04-30T02:13:34.590Z,95553.89
2019-04-30T02:16:03.560Z,95558.73
2019-04-30T02:18:32.705Z,95562.16
2019-04-30T02:21:01.836Z,95557.39
2019-04-30T02:23:30.991Z,95564.71
2019-04-30T02:26:00.404Z,95559.61
2019-04-30T02:28:30.644Z,95556.48
2019-04-30T02:31:00.576Z,95552.09
2019-04-30T02:33:31.417Z,95553.05
2019-04-30T02:36:11.068Z,95550.08
2019-04-30T02:38:43.685Z,95550.04
2019-04-30T02:41:13.339Z,95546.98
2019-04-30T02:43:43.187Z,95553.84
2019-04-30T02:46:14.976Z,95558.07
2019-04-30T02:48:46.251Z,95549.55
2019-04-30T02:51:22.546Z,95546.16
2019-04-30T02:54:13.269Z,95541.77
2019-04-30T02:56:44.391Z,95537.88
2019-04-30T02:59:13.581Z,95536.13
2019-04-30T03:01:42.885Z,95527.51
2019-04-30T03:04:12.026Z,95526.22
2019-04-30T03:06:41.140Z,95517.64
2019-04-30T03:09:10.990Z,95511.13
2019-04-30T03:11:40.900Z,95510.70
2019-04-30T03:14:10.906Z,95521.16
2019-04-30T03:17:00.370Z,95518.90
2019-04-30T03:20:03.436Z,95523.62
2019-04-30T03:22:31.728Z,95525.25
2019-04-30T03:25:00.949Z,95526.47
2019-04-30T03:27:30.295Z,95524.24
2019-04-30T03:30:00.205Z,95526.83
2019-04-30T03:32:35.748Z,95526.50
2019-04-30T03:35:03.232Z,95524.75
2019-04-30T03:37:31.247Z,95524.16
2019-04-30T03:40:00.729Z,95526.34
2019-04-30T03:42:29.969Z,95531.48
2019-04-30T03:44:59.341Z,95527.09
2019-04-30T03:47:30.088Z,95524.50
2019-04-30T03:50:00.005Z,95528.84
2019-04-30T03:52:29.396Z,95531.77
2019-04-30T03:54:59.625Z,95535.28
2019-04-30T03:57:30.284Z,95534.45
2019-04-30T03:59:59.676Z,95536.95
2019-04-30T04:02:53.654Z,95544.73
2019-04-30T04:05:41.824Z,95542.09
2019-04-30T04:08:23.238Z,95544.69
2019-04-30T04:10:56.700Z,95544.69
2019-04-30T04:13:25.878Z,95547.74
2019-04-30T04:15:55.078Z,95547.28
2019-04-30T04:18:24.215Z,95548.70
2019-04-30T04:21:07.685Z,95545.23
2019-04-30T04:23:24.271Z,95550.80
2019-04-30T04:25:53.512Z,95546.11
2019-04-30T04:28:22.625Z,95544.02
2019-04-30T04:30:51.763Z,95544.40
2019-04-30T04:33:20.893Z,95541.47
2019-04-30T04:35:50.193Z,95551.88
2019-04-30T04:38:20.319Z,95555.34
2019-04-30T04:40:50.397Z,95551.00
2019-04-30T04:43:20.317Z,95547.95
2019-04-30T04:45:50.068Z,95548.67
2019-04-30T04:48:23.060Z,95549.16
2019-04-30T04:50:50.394Z,95549.13
2019-04-30T04:53:19.787Z,95546.45
2019-04-30T04:55:49.990Z,95549.42
2019-04-30T04:58:21.490Z,95547.36
2019-04-30T05:00:50.265Z,95553.01
2019-04-30T05:03:32.327Z,95551.63
2019-04-30T05:06:02.937Z,95557.69
2019-04-30T05:08:32.110Z,95558.49
2019-04-30T05:11:01.317Z,95553.27
2019-04-30T05:13:30.424Z,95559.70
2019-04-30T05:15:59.583Z,95556.73
2019-04-30T05:18:29.157Z,95556.70
2019-04-30T05:20:58.998Z,95553.23
2019-04-30T05:23:29.833Z,95550.63
2019-04-30T05:25:59.128Z,95553.64
2019-04-30T05:28:30.163Z,95548.92
2019-04-30T05:30:59.445Z,95546.70
2019-04-30T05:33:28.746Z,95553.27
2019-04-30T05:35:59.398Z,95555.82
2019-04-30T05:38:31.164Z,95551.92
2019-04-30T05:40:59.735Z,95549.70
2019-04-30T05:43:29.092Z,95552.34
2019-04-30T05:45:58.703Z,95554.85
2019-04-30T05:48:28.621Z,95554.89
2019-04-30T05:50:59.148Z,95554.77
2019-04-30T05:53:28.803Z,95561.25
2019-04-30T05:55:59.321Z,95560.75
2019-04-30T05:58:29.952Z,95561.25
2019-04-30T06:00:59.830Z,95565.94
2019-04-30T06:03:33.073Z,95566.84
2019-04-30T06:06:00.074Z,95562.55
2019-04-30T06:08:35.818Z,95571.28
2019-04-30T06:11:12.470Z,95572.13
2019-04-30T06:13:54.566Z,95568.28
2019-04-30T06:16:25.424Z,95577.81
2019-04-30T06:18:54.547Z,95572.63
2019-04-30T06:21:23.847Z,95576.52
2019-04-30T06:23:53.000Z,95576.02
2019-04-30T06:26:22.677Z,95577.27
2019-04-30T06:28:51.843Z,95580.28
2019-04-30T06:31:31.907Z,95581.63
2019-04-30T06:33:51.932Z,95574.34
2019-04-30T06:36:21.462Z,95583.75
2019-04-30T06:38:50.618Z,95586.30
2019-04-30T06:41:19.905Z,95586.34
2019-04-30T06:43:50.006Z,95589.73
2019-04-30T06:46:19.182Z,95588.36
2019-04-30T06:48:50.994Z,95594.87
2019-04-30T06:51:20.210Z,95588.10
2019-04-30T06:53:51.256Z,95592.28
2019-04-30T06:56:20.209Z,95591.87
2019-04-30T06:58:52.396Z,95600.98
2019-04-30T07:01:20.253Z,95604.00
2019-04-30T07:03:49.389Z,95609.10
2019-04-30T07:06:29.155Z,95603.53
2019-04-30T07:09:20.342Z,95607.34
2019-04-30T07:12:02.967Z,95599.94
2019-04-30T07:14:32.226Z,95593.54
2019-04-30T07:17:01.405Z,95595.34
2019-04-30T07:19:38.209Z,95593.20
2019-04-30T07:22:02.928Z,95598.85
2019-04-30T07:24:32.062Z,95601.73
2019-04-30T07:27:02.872Z,95602.57
2019-04-30T07:29:32.200Z,95603.78
2019-04-30T07:32:01.390Z,95602.61
2019-04-30T07:34:36.599Z,95604.70
2019-04-30T07:37:11.831Z,95602.06
2019-04-30T07:39:33.542Z,95604.62
2019-04-30T07:42:02.764Z,95605.03
2019-04-30T07:44:36.522Z,95605.03
2019-04-30T07:47:02.758Z,95611.52
2019-04-30T07:49:47.033Z,95607.54
2019-04-30T07:52:03.500Z,95610.77
2019-04-30T07:54:33.025Z,95613.41
2019-04-30T07:57:02.185Z,95610.81
2019-04-30T07:59:31.360Z,95612.19
2019-04-30T08:02:10.232Z,95620.77
2019-04-30T08:04:52.505Z,95623.82
2019-04-30T08:07:21.779Z,95626.71
2019-04-30T08:09:51.037Z,95630.14
2019-04-30T08:12:26.123Z,95631.06
2019-04-30T08:14:51.053Z,95635.75
2019-04-30T08:17:20.196Z,95632.64
2019-04-30T08:19:49.442Z,95633.02
2019-04-30T08:22:19.598Z,95636.00
2019-04-30T08:24:49.238Z,95633.39
2019-04-30T08:27:19.668Z,95632.98
2019-04-30T08:29:49.880Z,95641.05
2019-04-30T08:32:19.306Z,95632.43
2019-04-30T08:34:50.086Z,95637.16
2019-04-30T08:37:20.196Z,95640.13
2019-04-30T08:39:49.825Z,95641.42
2019-04-30T08:42:30.841Z,95639.24
2019-04-30T08:44:49.953Z,95633.59
2019-04-30T08:47:21.294Z,95639.62
2019-04-30T08:49:50.558Z,95637.81
2019-04-30T08:52:20.457Z,95636.41
2019-04-30T08:54:49.770Z,95633.44
2019-04-30T08:57:19.307Z,95633.35
2019-04-30T08:59:49.493Z,95631.53
2019-04-30T09:02:19.757Z,95634.03
2019-04-30T09:04:52.426Z,95632.84
2019-04-30T09:07:21.548Z,95635.80
2019-04-30T09:09:50.700Z,95639.60
2019-04-30T09:12:19.845Z,95641.41
2019-04-30T09:14:49.270Z,95642.76
2019-04-30T09:17:19.861Z,95641.73
2019-04-30T09:19:49.195Z,95645.58
2019-04-30T09:22:19.549Z,95649.52
2019-04-30T09:24:49.690Z,95658.23
2019-04-30T09:27:19.537Z,95655.08
2019-04-30T09:29:49.278Z,95662.45
2019-04-30T09:32:19.352Z,95650.41
2019-04-30T09:34:48.989Z,95660.27
2019-04-30T09:37:18.690Z,95664.06
2019-04-30T09:39:49.443Z,95655.87
2019-04-30T09:42:19.571Z,95652.38
2019-04-30T09:44:49.372Z,95663.44
2019-04-30T09:47:20.055Z,95659.03
2019-04-30T09:49:50.342Z,95662.09
2019-04-30T09:52:20.065Z,95660.59
2019-04-30T09:54:50.468Z,95653.46
2019-04-30T09:57:20.048Z,95657.83
2019-04-30T09:59:49.238Z,95655.48
2019-04-30T10:02:19.127Z,95651.17
2019-04-30T10:04:48.916Z,95648.77
2019-04-30T10:07:19.501Z,95644.81
2019-04-30T10:09:50.805Z,95642.62
2019-04-30T10:12:19.754Z,95642.98
2019-04-30T10:14:49.454Z,95638.85
2019-04-30T10:17:43.885Z,95637.41
2019-04-30T10:20:14.224Z,95639.34
2019-04-30T10:22:43.366Z,95635.75
2019-04-30T10:25:12.817Z,95639.20
2019-04-30T10:27:42.018Z,95641.05
2019-04-30T10:30:11.669Z,95647.02
2019-04-30T10:32:40.787Z,95647.47
2019-04-30T10:35:09.927Z,95646.12
2019-04-30T10:37:39.119Z,95645.10
2019-04-30T10:40:12.284Z,95638.81
2019-04-30T10:42:41.436Z,95639.46
2019-04-30T10:45:11.190Z,95636.59
2019-04-30T10:47:40.412Z,95640.28
2019-04-30T10:50:10.147Z,95641.86
2019-04-30T10:52:39.467Z,95637.78
2019-04-30T10:55:09.413Z,95640.30
2019-04-30T10:57:39.657Z,95637.45
2019-04-30T11:00:13.438Z,95637.40
2019-04-30T11:02:42.696Z,95631.77
2019-04-30T11:05:12.358Z,95627.50
2019-04-30T11:07:41.472Z,95622.06
2019-04-30T11:10:11.062Z,95617.91
2019-04-30T11:12:40.204Z,95614.15
2019-04-30T11:15:09.688Z,95613.23
2019-04-30T11:17:39.645Z,95609.97
2019-04-30T11:20:10.317Z,95603.89
2019-04-30T11:22:39.935Z,95603.31
2019-04-30T11:25:10.195Z,95610.45
2019-04-30T11:27:40.767Z,95607.03
2019-04-30T11:30:20.386Z,95608.91
2019-04-30T11:32:42.917Z,95610.22
2019-04-30T11:35:12.743Z,95605.23
2019-04-30T11:37:41.911Z,95611.81
2019-04-30T11:40:11.660Z,95604.33
2019-04-30T11:42:40.917Z,95601.75
2019-04-30T11:45:10.855Z,95602.05
2019-04-30T11:47:40.152Z,95601.70
2019-04-30T11:50:12.341Z,95599.95
2019-04-30T11:52:41.724Z,95598.30
2019-04-30T11:55:11.482Z,95597.83
2019-04-30T11:57:40.785Z,95593.63
2019-04-30T12:00:15.154Z,95595.69
2019-04-30T12:02:46.909Z,95592.50
2019-04-30T12:05:20.561Z,95588.84
2019-04-30T12:08:05.740Z,95594.47
2019-04-30T12:10:56.965Z,95594.23
2019-04-30T12:13:27.392Z,95585.02
2019-04-30T12:15:58.930Z,95593.86
2019-04-30T12:18:27.857Z,95589.08
2019-04-30T12:20:57.123Z,95599.85
2019-04-30T12:23:26.329Z,95590.67
2019-04-30T12:25:55.497Z,95584.06
2019-04-30T12:28:27.233Z,95581.61
2019-04-30T12:30:55.516Z,95578.26
2019-04-30T12:33:24.815Z,95591.38
2019-04-30T12:35:53.953Z,95577.69
2019-04-30T12:38:23.135Z,95579.13
2019-04-30T12:40:52.330Z,95583.06
2019-04-30T12:43:21.537Z,95574.98
2019-04-30T12:46:02.285Z,95581.31
2019-04-30T12:48:44.570Z,95580.74
2019-04-30T12:51:45.062Z,95585.02
2019-04-30T12:54:20.030Z,95583.81
2019-04-30T12:57:10.889Z,95583.39
2019-04-30T12:59:39.122Z,95597.47
2019-04-30T13:02:09.106Z,95588.54
2019-04-30T13:04:39.368Z,95579.84
2019-04-30T13:07:10.481Z,95582.02
2019-04-30T13:09:40.622Z,95582.91
2019-04-30T13:12:11.138Z,95574.93
2019-04-30T13:14:51.481Z,95570.30
2019-04-30T13:17:11.511Z,95571.22
2019-04-30T13:19:40.644Z,95576.23
2019-04-30T13:22:11.373Z,95567.17
2019-04-30T13:24:40.710Z,95558.77
2019-04-30T13:27:14.365Z,95564.31
2019-04-30T13:29:56.101Z,95564.31
2019-04-30T13:32:30.172Z,95560.03
2019-04-30T13:35:00.992Z,95567.30
2019-04-30T13:37:45.301Z,95560.25
2019-04-30T13:40:32.372Z,95563.51
2019-04-30T13:43:02.018Z,95566.89
2019-04-30T13:45:31.210Z,95561.46
2019-04-30T13:48:00.442Z,95565.79
2019-04-30T13:50:29.602Z,95567.47
2019-04-30T13:52:58.924Z,95559.95
2019-04-30T13:55:30.538Z,95560.23
2019-04-30T13:57:59.060Z,95556.45
2019-04-30T14:00:29.760Z,95562.02
2019-04-30T14:03:09.739Z,95569.55
2019-04-30T14:05:39.032Z,95570.52
2019-04-30T14:08:33.524Z,95578.20
2019-04-30T14:11:03.783Z,95569.87
2019-04-30T14:13:32.906Z,95567.87
2019-04-30T14:16:02.055Z,95559.31
2019-04-30T14:18:34.029Z,95566.62
2019-04-30T14:21:02.221Z,95559.27
2019-04-30T14:23:31.379Z,95557.36
2019-04-30T14:26:01.174Z,95564.34
2019-04-30T14:28:30.402Z,95561.83
2019-04-30T14:30:59.611Z,95556.92
2019-04-30T14:33:29.404Z,95573.16
2019-04-30T14:36:00.760Z,95569.61
2019-04-30T14:38:29.683Z,95574.34
2019-04-30T14:41:00.678Z,95576.92
2019-04-30T14:43:56.161Z,95572.22
2019-04-30T14:46:45.062Z,95569.92
2019-04-30T14:49:36.728Z,95566.82
2019-04-30T14:52:06.510Z,95564.80
2019-04-30T14:54:50.246Z,95567.02
2019-04-30T14:57:34.770Z,95566.84
2019-04-30T15:00:20.864Z,95571.00
2019-04-30T15:02:58.572Z,95566.58
2019-04-30T15:05:39.186Z,95569.45
2019-04-30T15:08:01.475Z,95568.41
2019-04-30T15:10:30.745Z,95569.20
2019-04-30T15:13:00.220Z,95578.66
2019-04-30T15:15:33.697Z,95572.66
2019-04-30T15:18:02.902Z,95576.67
2019-04-30T15:20:32.082Z,95571.06
2019-04-30T15:23:21.885Z,95576.39
2019-04-30T15:25:51.221Z,95576.47
2019-04-30T15:28:20.353Z,95567.74
2019-04-30T15:30:49.561Z,95566.81
2019-04-30T15:33:25.665Z,95565.87
2019-04-30T15:35:54.824Z,95567.40
2019-04-30T15:38:42.967Z,95567.28
2019-04-30T15:41:12.095Z,95566.45
2019-04-30T15:43:41.257Z,95568.16
2019-04-30T15:46:10.458Z,95566.92
2019-04-30T15:48:39.600Z,95565.58
2019-04-30T15:51:09.055Z,95566.92
2019-04-30T15:53:39.312Z,95573.76
2019-04-30T15:56:08.603Z,95570.80
2019-04-30T15:58:39.539Z,95559.83
2019-04-30T16:01:10.213Z,95564.31
2019-04-30T16:03:40.975Z,95561.69
2019-04-30T16:06:10.490Z,95566.75
2019-04-30T16:08:48.127Z,95569.77
2019-04-30T16:11:51.337Z,95567.03
2019-04-30T16:14:27.019Z,95567.03
2019-04-30T16:17:20.665Z,95564.27
2019-04-30T16:19:50.179Z,95561.42
2019-04-30T16:22:20.871Z,95558.92
2019-04-30T16:24:50.144Z,95563.46
2019-04-30T16:27:19.602Z,95562.59
2019-04-30T16:29:49.781Z,95563.95
2019-04-30T16:32:19.888Z,95557.19
2019-04-30T16:34:49.837Z,95561.62
2019-04-30T16:37:20.245Z,95554.31
2019-04-30T16:39:49.497Z,95555.22
2019-04-30T16:42:19.147Z,95551.30
2019-04-30T16:44:48.293Z,95551.73
2019-04-30T16:47:19.703Z,95551.44
2019-04-30T16:49:49.357Z,95555.33
2019-04-30T16:52:19.072Z,95543.69
2019-04-30T16:54:50.085Z,95550.92
2019-04-30T16:57:19.292Z,95549.06
2019-04-30T16:59:49.975Z,95545.98
2019-04-30T17:02:20.293Z,95551.69
2019-04-30T17:05:00.434Z,95546.59
2019-04-30T17:08:07.023Z,95544.55
2019-04-30T17:10:58.025Z,95541.87
2019-04-30T17:13:38.960Z,95551.95
2019-04-30T17:16:14.275Z,95552.75
2019-04-30T17:18:43.445Z,95545.59
2019-04-30T17:21:12.701Z,95541.89
2019-04-30T17:23:41.928Z,95550.43
2019-04-30T17:26:12.364Z,95544.33
2019-04-30T17:28:41.547Z,95552.05
2019-04-30T17:31:13.401Z,95543.84
2019-04-30T17:33:41.725Z,95553.36
2019-04-30T17:36:11.224Z,95555.77
2019-04-30T17:38:40.424Z,95555.27
2019-04-30T17:41:10.789Z,95559.93
2019-04-30T17:43:41.653Z,95556.98
2019-04-30T17:46:11.180Z,95556.98
2019-04-30T17:48:40.429Z,95557.52
2019-04-30T17:51:09.697Z,95565.36
2019-04-30T17:53:58.743Z,95565.23
2019-04-30T17:56:28.224Z,95559.53
2019-04-30T17:58:57.421Z,95565.56
2019-04-30T18:01:26.772Z,95570.80
2019-04-30T18:03:56.039Z,95575.11
2019-04-30T18:06:26.393Z,95575.78
2019-04-30T18:08:55.639Z,95572.17
2019-04-30T18:11:24.998Z,95576.48
2019-04-30T18:13:54.389Z,95578.53
2019-04-30T18:16:23.645Z,95576.29
2019-04-30T18:19:04.509Z,95579.50
2019-04-30T18:21:38.578Z,95586.34
2019-04-30T18:24:36.316Z,95585.77
2019-04-30T18:27:20.918Z,95581.64
2019-04-30T18:29:49.327Z,95588.04
2019-04-30T18:32:19.845Z,95584.34
2019-04-30T18:34:49.182Z,95592.63
2019-04-30T18:37:18.902Z,95591.02
2019-04-30T18:39:49.677Z,95597.58
2019-04-30T18:42:19.407Z,95599.47
2019-04-30T18:44:48.659Z,95602.86
2019-04-30T18:47:18.905Z,95606.40
2019-04-30T18:49:49.537Z,95604.25
2019-04-30T18:52:19.050Z,95611.19
2019-04-30T18:54:49.539Z,95616.63
2019-04-30T18:57:18.839Z,95618.73
2019-04-30T18:59:48.105Z,95628.66
2019-04-30T19:02:17.774Z,95625.76
2019-04-30T19:04:47.056Z,95625.27
2019-04-30T19:07:28.246Z,95625.64
2019-04-30T19:10:16.422Z,95623.88
2019-04-30T19:13:04.301Z,95630.46
2019-04-30T19:16:18.130Z,95636.44
2019-04-30T19:18:31.787Z,95643.29
2019-04-30T19:21:01.162Z,95648.63
2019-04-30T19:23:30.608Z,95648.31
2019-04-30T19:26:00.107Z,95648.28
2019-04-30T19:28:29.680Z,95647.15
2019-04-30T19:31:00.985Z,95642.36
2019-04-30T19:33:31.154Z,95642.02
2019-04-30T19:36:00.705Z,95650.48
2019-04-30T19:38:29.986Z,95646.99
2019-04-30T19:41:02.709Z,95657.90
2019-04-30T19:43:32.011Z,95654.39
2019-04-30T19:46:01.259Z,95658.88
2019-04-30T19:48:31.326Z,95657.20
2019-04-30T19:51:00.570Z,95651.45
2019-04-30T19:53:30.392Z,95650.41
2019-04-30T19:55:59.763Z,95655.33
2019-04-30T19:58:46.382Z,95648.88
2019-04-30T20:01:03.105Z,95652.80
2019-04-30T20:03:33.687Z,95653.45
2019-04-30T20:06:02.961Z,95658.56
2019-04-30T20:08:33.238Z,95660.05
2019-04-30T20:11:02.460Z,95650.41
2019-04-30T20:13:36.998Z,95652.06
2019-04-30T20:16:02.684Z,95653.45
2019-04-30T20:18:31.884Z,95650.44
2019-04-30T20:21:02.792Z,95652.14
2019-04-30T20:23:31.953Z,95651.66
2019-04-30T20:26:01.208Z,95651.24
2019-04-30T20:28:39.136Z,95651.58
2019-04-30T20:31:01.401Z,95646.73
2019-04-30T20:33:30.678Z,95648.15
2019-04-30T20:35:59.875Z,95653.27
2019-04-30T20:38:53.853Z,95654.91
2019-04-30T20:41:24.085Z,95648.69
2019-04-30T20:43:53.347Z,95652.04
2019-04-30T20:46:32.053Z,95652.95
2019-04-30T20:48:53.501Z,95654.19
2019-04-30T20:51:22.766Z,95646.98
2019-04-30T20:53:51.921Z,95649.61
2019-04-30T20:56:21.156Z,95649.77
2019-04-30T20:58:57.766Z,95648.41
2019-04-30T21:01:21.339Z,95645.86
2019-04-30T21:03:50.585Z,95643.73
2019-04-30T21:06:19.875Z,95652.05
2019-04-30T21:08:48.944Z,95642.20
2019-04-30T21:11:19.306Z,95645.95
2019-04-30T21:13:49.141Z,95641.95
2019-04-30T21:16:18.517Z,95640.64
2019-04-30T21:18:47.788Z,95641.44
2019-04-30T21:21:18.859Z,95638.76
2019-04-30T21:23:49.158Z,95637.40
2019-04-30T21:26:19.609Z,95632.39
2019-04-30T21:28:49.421Z,95641.52
2019-04-30T21:31:46.546Z,95645.25
2019-04-30T21:34:24.557Z,95638.66
2019-04-30T21:36:53.897Z,95639.30
2019-04-30T21:39:23.025Z,95643.15
2019-04-30T21:41:53.437Z,95638.48
2019-04-30T21:44:22.646Z,95638.75
2019-04-30T21:46:51.807Z,95634.92
2019-04-30T21:49:21.173Z,95634.10
2019-04-30T21:51:50.339Z,95634.92
2019-04-30T21:54:19.626Z,95638.67
2019-04-30T21:56:48.859Z,95633.28
2019-04-30T21:59:24.490Z,95633.89
2019-04-30T22:01:49.008Z,95631.14
2019-04-30T22:04:18.213Z,95627.23
2019-04-30T22:06:49.435Z,95626.89
2019-04-30T22:09:18.535Z,95626.09
2019-04-30T22:11:49.390Z,95628.13
2019-04-30T22:14:18.637Z,95627.31
2019-04-30T22:16:49.417Z,95625.69
2019-04-30T22:19:18.540Z,95628.30
2019-04-30T22:21:49.603Z,95628.55
2019-04-30T22:24:18.787Z,95629.11
2019-04-30T22:26:47.965Z,95627.73
2019-04-30T22:29:19.019Z,95626.41
2019-04-30T22:31:49.471Z,95622.52
2019-04-30T22:34:18.915Z,95622.52
2019-04-30T22:36:49.025Z,95630.25
2019-04-30T22:39:32.748Z,95630.95
2019-04-30T22:42:20.271Z,95626.44
2019-04-30T22:44:49.537Z,95619.97
2019-04-30T22:47:18.705Z,95617.53
2019-04-30T22:52:12.383Z,95610.33
2019-04-30T22:54:41.517Z,95608.28
2019-04-30T22:57:11.006Z,95611.52
2019-04-30T22:59:49.708Z,95608.11
2019-04-30T23:02:28.032Z,95609.65
2019-04-30T23:04:57.251Z,95606.52
2019-04-30T23:07:26.427Z,95609.23
2019-04-30T23:09:55.625Z,95608.08
2019-04-30T23:12:24.759Z,95607.94
2019-04-30T23:14:53.899Z,95605.41
2019-04-30T23:17:23.025Z,95603.14
2019-04-30T23:19:52.138Z,95596.15
2019-04-30T23:22:21.269Z,95598.34
2019-04-30T23:24:50.469Z,95595.81
2019-04-30T23:27:19.664Z,95594.65
2019-04-30T23:29:48.854Z,95602.87
2019-04-30T23:32:17.971Z,95596.36
2019-04-30T23:34:47.132Z,95596.09
2019-04-30T23:37:16.297Z,95592.34
2019-04-30T23:39:45.544Z,95592.82
2019-04-30T23:42:14.633Z,95589.33
2019-04-30T23:44:43.790Z,95591.52
2019-04-30T23:47:12.962Z,95588.58
2019-04-30T23:49:42.100Z,95592.41
2019-04-30T23:52:11.257Z,95587.22
2019-04-30T23:54:40.369Z,95585.92
2019-04-30T23:57:09.492Z,95581.95
2019-04-30T23:59:38.674Z,95579.41
